Aviation Digital Data Service (ADDS)

Output produced by METARs form (1109 UTC 13 December 2017)
found at http://www.aviationweather.gov/adds/metars/
 
SYCJ 131100Z 18004KT 7000 FEW012CB BKN013 24/23 Q1013 CB-E, SW NOSIG
TAF SYCJ 130519Z 1306/1406 VRB02KT 9999 SCT012 
     BECMG 1311/1313 07010KT BKN018 
     TEMPO 1316/1320 5000 SHRA SCT016 BKN034 
     BECMG 1323/1401 06004KT 9999 SCT014 SCT038